createdAt,value
2023-12-09T00:02:05.637Z,101615.91
2023-12-09T00:04:33.025Z,101622.72
2023-12-09T00:07:00.083Z,101620.41
2023-12-09T00:09:27.088Z,101625.53
2023-12-09T00:11:54.234Z,101628.53
2023-12-09T00:14:21.692Z,101628.88
2023-12-09T00:16:48.991Z,101623.81
2023-12-09T00:19:16.432Z,101626.31
2023-12-09T00:21:43.519Z,101626.81
2023-12-09T00:24:10.516Z,101626.72
2023-12-09T00:26:37.812Z,101625.75
2023-12-09T00:29:04.905Z,101623.31
2023-12-09T00:31:31.935Z,101618.47
2023-12-09T00:33:59.108Z,101624.47
2023-12-09T00:36:26.301Z,101625.91
2023-12-09T00:38:53.465Z,101613.63
2023-12-09T00:41:20.562Z,101616.69
2023-12-09T00:43:47.636Z,101617.63
2023-12-09T00:46:14.786Z,101622.25
2023-12-09T00:48:42.006Z,101621.03
2023-12-09T00:51:09.262Z,101624.66
2023-12-09T00:53:36.274Z,101631.06
2023-12-09T00:56:03.354Z,101625.94
2023-12-09T00:58:30.541Z,101621.59
2023-12-09T01:00:57.589Z,101629.31
2023-12-09T01:03:24.842Z,101632.91
2023-12-09T01:05:52.021Z,101630.78
2023-12-09T01:08:19.077Z,101638.88
2023-12-09T01:10:46.171Z,101639.53
2023-12-09T01:13:13.216Z,101645.22
2023-12-09T01:15:40.759Z,101651.13
2023-12-09T01:18:07.933Z,101652.78
2023-12-09T01:20:35.042Z,101655.03
2023-12-09T01:23:02.006Z,101656.94
2023-12-09T01:25:29.182Z,101660.16
2023-12-09T01:27:56.172Z,101648.81
2023-12-09T01:30:23.312Z,101655.03
2023-12-09T01:32:51.214Z,101653.53
2023-12-09T01:35:18.449Z,101649.75
2023-12-09T01:37:45.515Z,101647.75
2023-12-09T01:40:16.260Z,101651.63
2023-12-09T01:42:43.729Z,101649.78
2023-12-09T01:45:11.576Z,101645.69
2023-12-09T01:47:40.950Z,101638.22
2023-12-09T01:50:08.969Z,101642.47
2023-12-09T01:52:37.420Z,101639.91
2023-12-09T01:55:04.729Z,101633.56
2023-12-09T01:57:32.124Z,101639.63
2023-12-09T01:59:59.387Z,101633.13
2023-12-09T02:02:26.793Z,101632.13
2023-12-09T02:04:55.376Z,101635.56
2023-12-09T02:07:22.656Z,101628.59
2023-12-09T02:09:50.098Z,101631.81
2023-12-09T02:12:27.168Z,101635.28
2023-12-09T02:15:00.690Z,101636.97
2023-12-09T02:17:35.558Z,101639.34
2023-12-09T02:20:04.576Z,101640.22
2023-12-09T02:22:31.790Z,101639.34
2023-12-09T02:24:58.813Z,101638.53
2023-12-09T02:27:39.775Z,101633.84
2023-12-09T02:30:20.647Z,101635.31
2023-12-09T02:32:50.258Z,101633.72
2023-12-09T02:35:20.466Z,101634.88
2023-12-09T02:37:48.438Z,101638.28
2023-12-09T02:40:18.582Z,101633.75
2023-12-09T02:42:46.240Z,101643.31
2023-12-09T02:45:13.658Z,101641.78
2023-12-09T02:47:40.808Z,101635.19
2023-12-09T02:50:08.032Z,101637.81
2023-12-09T02:52:35.180Z,101629.88
2023-12-09T02:55:02.234Z,101624.50
2023-12-09T02:57:29.365Z,101629.69
2023-12-09T02:59:56.469Z,101623.69
2023-12-09T03:02:23.452Z,101619.69
2023-12-09T03:04:50.584Z,101626.78
2023-12-09T03:07:21.560Z,101627.56
2023-12-09T03:09:48.675Z,101628.81
2023-12-09T03:12:15.783Z,101629.69
2023-12-09T03:14:43.074Z,101623.44
2023-12-09T03:17:13.154Z,101630.63
2023-12-09T03:19:40.246Z,101634.31
2023-12-09T03:22:07.325Z,101634.78
2023-12-09T03:24:34.393Z,101641.38
2023-12-09T03:27:01.491Z,101636.97
2023-12-09T03:29:28.509Z,101640.03
2023-12-09T03:31:55.431Z,101635.50
2023-12-09T03:34:22.735Z,101625.47
2023-12-09T03:36:49.883Z,101630.22
2023-12-09T03:39:17.041Z,101626.22
2023-12-09T03:41:44.036Z,101623.44
2023-12-09T03:44:10.983Z,101619.22
2023-12-09T03:46:37.979Z,101615.31
2023-12-09T03:49:05.102Z,101623.97
2023-12-09T03:51:32.215Z,101623.97
2023-12-09T03:53:59.310Z,101620.47
2023-12-09T03:56:26.921Z,101625.13
2023-12-09T03:58:54.526Z,101630.22
2023-12-09T04:01:23.975Z,101626.84
2023-12-09T04:03:51.770Z,101626.03
2023-12-09T04:06:19.025Z,101622.31
2023-12-09T04:08:46.376Z,101618.81
2023-12-09T04:11:13.417Z,101623.53
2023-12-09T04:13:41.900Z,101617.28
2023-12-09T04:16:09.229Z,101615.97
2023-12-09T04:18:37.512Z,101615.72
2023-12-09T04:21:06.193Z,101614.88
2023-12-09T04:23:33.214Z,101621.53
2023-12-09T04:26:00.459Z,101614.47
2023-12-09T04:28:27.599Z,101609.56
2023-12-09T04:30:54.669Z,101614.91
2023-12-09T04:33:21.652Z,101614.91
2023-12-09T04:35:48.836Z,101624.66
2023-12-09T04:38:16.204Z,101632.53
2023-12-09T04:40:43.763Z,101636.13
2023-12-09T04:43:10.916Z,101632.72
2023-12-09T04:45:37.882Z,101640.13
2023-12-09T04:48:05.227Z,101641.03
2023-12-09T04:50:32.309Z,101649.94
2023-12-09T04:52:59.327Z,101658.47
2023-12-09T04:55:27.090Z,101657.31
2023-12-09T04:57:54.036Z,101649.03
2023-12-09T05:00:21.258Z,101646.34
2023-12-09T05:02:48.426Z,101653.13
2023-12-09T05:05:15.536Z,101652.03
2023-12-09T05:07:42.540Z,101659.16
2023-12-09T05:10:09.862Z,101655.81
2023-12-09T05:12:36.851Z,101661.47
2023-12-09T05:15:04.897Z,101674.00
2023-12-09T05:17:32.090Z,101678.34
2023-12-09T05:19:59.336Z,101685.38
2023-12-09T05:22:26.468Z,101683.34
2023-12-09T05:24:53.714Z,101685.06
2023-12-09T05:27:20.670Z,101691.72
2023-12-09T05:29:47.698Z,101686.66
2023-12-09T05:32:14.776Z,101701.59
2023-12-09T05:34:41.936Z,101698.75
2023-12-09T05:37:09.028Z,101700.63
2023-12-09T05:39:36.816Z,101702.06
2023-12-09T05:42:05.909Z,101692.50
2023-12-09T05:44:33.467Z,101701.16
2023-12-09T05:49:04.236Z,101692.25
2023-12-09T05:51:31.751Z,101689.69
2023-12-09T05:53:58.717Z,101686.56
2023-12-09T05:56:26.103Z,101687.09
2023-12-09T05:58:53.195Z,101686.69
2023-12-09T06:01:20.234Z,101694.53
2023-12-09T06:03:47.257Z,101687.19
2023-12-09T06:06:14.356Z,101680.75
2023-12-09T06:08:41.544Z,101686.00
2023-12-09T06:11:08.490Z,101686.47
2023-12-09T06:13:35.547Z,101688.22
2023-12-09T06:16:02.661Z,101683.78
2023-12-09T06:18:29.917Z,101694.69
2023-12-09T06:20:57.280Z,101700.28
2023-12-09T06:23:24.408Z,101707.44
2023-12-09T06:25:51.554Z,101720.31
2023-12-09T06:28:18.608Z,101714.78
2023-12-09T06:30:45.810Z,101707.63
2023-12-09T06:33:12.899Z,101712.75
2023-12-09T06:35:40.090Z,101724.00
2023-12-09T06:38:07.160Z,101724.41
2023-12-09T06:40:34.261Z,101719.00
2023-12-09T06:43:01.277Z,101718.28
2023-12-09T06:45:28.258Z,101718.06
2023-12-09T06:47:56.410Z,101712.38
2023-12-09T06:50:23.618Z,101711.75
2023-12-09T06:52:50.730Z,101720.78
2023-12-09T06:55:17.824Z,101707.78
2023-12-09T06:57:45.014Z,101710.75
2023-12-09T07:00:14.020Z,101708.72
2023-12-09T07:02:49.268Z,101714.31
2023-12-09T07:05:24.380Z,101720.28
2023-12-09T07:07:52.420Z,101703.66
2023-12-09T07:10:19.633Z,101710.28
2023-12-09T07:12:46.636Z,101705.66
2023-12-09T07:15:14.056Z,101707.47
2023-12-09T07:17:41.165Z,101720.31
2023-12-09T07:20:08.854Z,101714.03
2023-12-09T07:22:35.972Z,101712.84
2023-12-09T07:25:03.117Z,101711.47
2023-12-09T07:27:30.266Z,101710.38
2023-12-09T07:29:57.455Z,101700.28
2023-12-09T07:32:24.804Z,101705.78
2023-12-09T07:34:56.253Z,101701.84
2023-12-09T07:37:24.944Z,101694.75
2023-12-09T07:39:52.571Z,101701.16
2023-12-09T07:42:20.147Z,101695.59
2023-12-09T07:44:47.336Z,101691.63
2023-12-09T07:47:14.406Z,101689.53
2023-12-09T07:49:43.518Z,101684.88
2023-12-09T07:52:11.316Z,101668.81
2023-12-09T07:54:38.424Z,101670.56
2023-12-09T07:57:05.721Z,101673.53
2023-12-09T07:59:33.068Z,101667.00
2023-12-09T08:02:00.098Z,101668.59
2023-12-09T08:04:27.181Z,101668.72
2023-12-09T08:06:55.407Z,101676.81
2023-12-09T08:09:22.692Z,101674.25
2023-12-09T08:11:52.963Z,101659.97
2023-12-09T08:14:20.834Z,101653.91
2023-12-09T08:16:47.948Z,101654.75
2023-12-09T08:19:14.992Z,101649.63
2023-12-09T08:21:42.124Z,101645.63
2023-12-09T08:24:09.373Z,101644.84
2023-12-09T08:26:38.569Z,101642.41
2023-12-09T08:29:05.962Z,101640.41
2023-12-09T08:31:33.663Z,101636.09
2023-12-09T08:34:00.859Z,101631.38
2023-12-09T08:36:28.067Z,101643.56
2023-12-09T08:38:55.164Z,101633.38
2023-12-09T08:41:22.194Z,101637.75
2023-12-09T08:43:53.877Z,101632.97
2023-12-09T08:46:20.919Z,101628.22
2023-12-09T08:48:48.424Z,101620.78
2023-12-09T08:51:15.585Z,101623.88
2023-12-09T08:53:42.589Z,101619.94
2023-12-09T08:56:09.594Z,101614.22
2023-12-09T08:58:36.685Z,101615.81
2023-12-09T09:01:03.759Z,101611.88
2023-12-09T09:03:31.785Z,101614.44
2023-12-09T09:05:59.394Z,101605.91
2023-12-09T09:08:26.463Z,101600.00
2023-12-09T09:10:54.037Z,101600.31
2023-12-09T09:13:21.115Z,101601.72
2023-12-09T09:15:48.209Z,101601.28
2023-12-09T09:18:15.351Z,101598.13
2023-12-09T09:20:44.219Z,101593.09
2023-12-09T09:23:12.049Z,101599.56
2023-12-09T09:25:39.099Z,101592.34
2023-12-09T09:28:06.521Z,101580.16
2023-12-09T09:30:33.723Z,101579.31
2023-12-09T09:33:01.468Z,101572.19
2023-12-09T09:35:28.596Z,101573.59
2023-12-09T09:37:55.575Z,101571.31
2023-12-09T09:40:22.747Z,101562.03
2023-12-09T09:43:06.383Z,101567.72
2023-12-09T09:45:33.795Z,101561.16
2023-12-09T09:48:06.830Z,101555.72
2023-12-09T09:50:41.398Z,101553.72
2023-12-09T09:53:10.212Z,101552.03
2023-12-09T09:55:40.707Z,101556.81
2023-12-09T09:58:08.437Z,101549.72
2023-12-09T10:00:35.680Z,101551.41
2023-12-09T10:03:04.492Z,101557.56
2023-12-09T10:05:31.830Z,101555.63
2023-12-09T10:07:59.153Z,101555.31
2023-12-09T10:10:28.422Z,101557.13
2023-12-09T10:12:55.472Z,101549.28
2023-12-09T10:15:22.658Z,101557.56
2023-12-09T10:17:50.175Z,101558.41
2023-12-09T10:20:17.696Z,101558.31
2023-12-09T10:22:48.073Z,101558.94
2023-12-09T10:25:25.260Z,101558.81
2023-12-09T10:27:53.020Z,101551.81
2023-12-09T10:30:20.281Z,101558.41
2023-12-09T10:32:50.818Z,101556.91
2023-12-09T10:35:18.529Z,101561.81
2023-12-09T10:37:45.675Z,101552.25
2023-12-09T10:40:14.596Z,101550.38
2023-12-09T10:42:41.875Z,101547.91
2023-12-09T10:45:09.615Z,101548.22
2023-12-09T10:47:37.021Z,101554.41
2023-12-09T10:50:05.369Z,101549.16
2023-12-09T10:52:34.217Z,101548.31
2023-12-09T10:55:03.033Z,101555.47
2023-12-09T10:57:33.971Z,101559.16
2023-12-09T11:00:02.579Z,101552.25
2023-12-09T11:02:31.194Z,101556.72
2023-12-09T11:04:58.943Z,101557.56
2023-12-09T11:07:27.162Z,101560.22
2023-12-09T11:09:54.544Z,101566.38
2023-12-09T11:12:29.184Z,101571.78
2023-12-09T11:14:56.994Z,101561.59
2023-12-09T11:17:39.048Z,101568.94
2023-12-09T11:20:16.543Z,101574.34
2023-12-09T11:22:45.497Z,101565.44
2023-12-09T11:25:26.620Z,101570.41
2023-12-09T11:27:54.738Z,101572.84
2023-12-09T11:30:36.001Z,101563.94
2023-12-09T11:33:05.746Z,101570.28
2023-12-09T11:35:34.783Z,101559.47
2023-12-09T11:38:03.616Z,101546.75
2023-12-09T11:40:32.389Z,101548.13
2023-12-09T11:43:01.407Z,101555.13
2023-12-09T11:45:28.695Z,101550.66
2023-12-09T11:47:58.247Z,101546.00
2023-12-09T11:50:28.621Z,101548.00
2023-12-09T11:52:55.816Z,101550.16
2023-12-09T11:55:23.046Z,101533.78
2023-12-09T11:57:50.098Z,101539.75
2023-12-09T12:00:17.643Z,101533.78
2023-12-09T12:02:44.809Z,101543.56
2023-12-09T12:05:13.049Z,101538.06
2023-12-09T12:07:40.660Z,101536.75
2023-12-09T12:10:09.297Z,101538.06
2023-12-09T12:12:37.678Z,101535.19
2023-12-09T12:15:06.321Z,101521.69
2023-12-09T12:17:41.910Z,101534.97
2023-12-09T12:20:11.852Z,101542.91
2023-12-09T12:22:41.740Z,101529.44
2023-12-09T12:25:09.925Z,101537.59
2023-12-09T12:27:40.288Z,101541.84
2023-12-09T12:30:09.489Z,101543.78
2023-12-09T12:32:39.303Z,101534.53
2023-12-09T12:35:07.204Z,101542.19
2023-12-09T12:37:34.658Z,101534.84
2023-12-09T12:40:01.794Z,101537.06
2023-12-09T12:42:29.385Z,101537.56
2023-12-09T12:44:56.923Z,101540.63
2023-12-09T12:47:24.344Z,101543.66
2023-12-09T12:49:51.617Z,101547.63
2023-12-09T12:52:18.795Z,101550.25
2023-12-09T12:54:45.902Z,101540.72
2023-12-09T12:57:13.058Z,101542.72
2023-12-09T12:59:40.205Z,101539.41
2023-12-09T13:02:07.330Z,101537.59
2023-12-09T13:04:34.761Z,101537.81
2023-12-09T13:07:01.814Z,101531.72
2023-12-09T13:09:29.374Z,101532.56
2023-12-09T13:11:56.677Z,101539.91
2023-12-09T13:14:23.869Z,101541.44
2023-12-09T13:16:51.457Z,101541.88
2023-12-09T13:19:19.569Z,101538.50
2023-12-09T13:21:46.785Z,101539.22
2023-12-09T13:24:14.036Z,101543.63
2023-12-09T13:26:41.221Z,101541.19
2023-12-09T13:29:08.498Z,101552.91
2023-12-09T13:31:36.356Z,101547.28
2023-12-09T13:34:06.447Z,101547.06
2023-12-09T13:36:35.516Z,101541.44
2023-12-09T13:39:05.272Z,101549.09
2023-12-09T13:41:33.053Z,101543.06
2023-12-09T13:44:02.268Z,101549.34
2023-12-09T13:46:29.522Z,101551.16
2023-12-09T13:48:57.118Z,101552.53
2023-12-09T13:51:24.438Z,101554.56
2023-12-09T13:53:51.662Z,101542.56
2023-12-09T13:56:18.827Z,101549.78
2023-12-09T13:58:45.806Z,101551.13
2023-12-09T14:01:13.143Z,101551.41
2023-12-09T14:03:41.040Z,101557.34
2023-12-09T14:06:08.610Z,101559.47
2023-12-09T14:08:35.753Z,101561.41
2023-12-09T14:11:03.058Z,101562.31
2023-12-09T14:13:30.501Z,101562.31
2023-12-09T14:15:57.578Z,101553.94
2023-12-09T14:18:24.895Z,101555.75
2023-12-09T14:20:52.155Z,101546.69
2023-12-09T14:23:19.332Z,101542.69
2023-12-09T14:25:46.645Z,101546.97
2023-12-09T14:28:16.703Z,101540.69
2023-12-09T14:30:44.220Z,101542.50
2023-12-09T14:33:11.601Z,101541.97
2023-12-09T14:35:38.776Z,101542.31
2023-12-09T14:38:07.286Z,101541.66
2023-12-09T14:40:34.756Z,101543.34
2023-12-09T14:43:09.917Z,101538.97
2023-12-09T14:45:38.725Z,101538.72
2023-12-09T14:48:08.274Z,101547.00
2023-12-09T14:50:36.360Z,101536.59
2023-12-09T14:53:04.411Z,101537.00
2023-12-09T14:55:31.715Z,101538.59
2023-12-09T14:58:00.271Z,101541.81
2023-12-09T15:00:28.634Z,101536.88
2023-12-09T15:02:56.702Z,101548.81
2023-12-09T15:05:24.109Z,101547.28
2023-12-09T15:07:51.468Z,101543.56
2023-12-09T15:10:19.014Z,101554.28
2023-12-09T15:12:48.936Z,101556.78
2023-12-09T15:15:17.974Z,101551.84
2023-12-09T15:17:45.558Z,101555.06
2023-12-09T15:20:12.891Z,101548.38
2023-12-09T15:22:40.550Z,101545.47
2023-12-09T15:25:09.676Z,101548.16
2023-12-09T15:27:37.694Z,101547.66
2023-12-09T15:30:08.074Z,101546.94
2023-12-09T15:32:36.242Z,101546.66
2023-12-09T15:35:03.464Z,101554.78
2023-12-09T15:37:30.628Z,101550.16
2023-12-09T15:39:58.115Z,101549.78
2023-12-09T15:42:28.669Z,101547.59
2023-12-09T15:44:55.937Z,101556.94
2023-12-09T15:47:23.363Z,101550.03
2023-12-09T15:49:50.516Z,101541.44
2023-12-09T15:52:17.667Z,101542.69
2023-12-09T15:54:44.755Z,101538.16
2023-12-09T15:57:12.200Z,101542.53
2023-12-09T15:59:39.314Z,101536.38
2023-12-09T16:02:06.607Z,101535.16
2023-12-09T16:04:34.203Z,101537.28
2023-12-09T16:07:01.420Z,101532.56
2023-12-09T16:09:28.805Z,101532.84
2023-12-09T16:11:56.490Z,101539.88
2023-12-09T16:14:25.437Z,101543.34
2023-12-09T16:16:52.608Z,101542.13
2023-12-09T16:19:20.088Z,101540.22
2023-12-09T16:21:47.844Z,101539.78
2023-12-09T16:24:15.129Z,101541.53
2023-12-09T16:26:44.634Z,101547.06
2023-12-09T16:29:11.874Z,101538.31
2023-12-09T16:31:39.934Z,101541.72
2023-12-09T16:34:07.275Z,101535.56
2023-12-09T16:36:34.885Z,101527.00
2023-12-09T16:39:02.468Z,101527.63
2023-12-09T16:41:29.906Z,101522.34
2023-12-09T16:43:57.229Z,101519.16
2023-12-09T16:46:25.352Z,101513.63
2023-12-09T16:48:53.509Z,101518.69
2023-12-09T16:51:21.373Z,101523.78
2023-12-09T16:53:48.814Z,101526.59
2023-12-09T16:56:16.422Z,101528.19
2023-12-09T16:58:43.920Z,101531.00
2023-12-09T17:01:12.046Z,101528.81
2023-12-09T17:03:39.609Z,101527.84
2023-12-09T17:06:07.392Z,101532.53
2023-12-09T17:08:35.629Z,101526.78
2023-12-09T17:11:03.340Z,101520.84
2023-12-09T17:13:30.924Z,101522.75
2023-12-09T17:15:58.914Z,101530.38
2023-12-09T17:18:28.739Z,101524.25
2023-12-09T17:20:58.633Z,101523.19
2023-12-09T17:23:25.789Z,101525.19
2023-12-09T17:25:53.284Z,101529.53
2023-12-09T17:28:20.789Z,101522.13
2023-12-09T17:30:48.375Z,101531.25
2023-12-09T17:33:15.667Z,101530.00
2023-12-09T17:35:43.171Z,101530.72
2023-12-09T17:38:10.734Z,101536.78
2023-12-09T17:40:37.869Z,101531.25
2023-12-09T17:43:04.995Z,101538.06
2023-12-09T17:45:32.174Z,101535.72
2023-12-09T17:47:59.595Z,101543.56
2023-12-09T17:50:27.169Z,101541.66
2023-12-09T17:52:54.368Z,101544.22
2023-12-09T17:55:21.476Z,101536.44
2023-12-09T17:57:49.622Z,101542.50
2023-12-09T18:00:16.919Z,101542.28
2023-12-09T18:02:44.410Z,101541.44
2023-12-09T18:05:11.848Z,101544.81
2023-12-09T18:07:39.204Z,101543.00
2023-12-09T18:10:08.119Z,101542.06
2023-12-09T18:12:36.137Z,101537.09
2023-12-09T18:15:03.878Z,101537.59
2023-12-09T18:17:31.607Z,101519.25
2023-12-09T18:19:59.061Z,101517.25
2023-12-09T18:22:26.541Z,101525.09
2023-12-09T18:24:54.005Z,101523.59
2023-12-09T18:27:21.306Z,101507.28
2023-12-09T18:29:48.802Z,101510.69
2023-12-09T18:32:17.009Z,101510.53
2023-12-09T18:34:45.011Z,101513.00
2023-12-09T18:37:13.552Z,101510.88
2023-12-09T18:39:40.709Z,101510.66
2023-12-09T18:42:07.951Z,101510.25
2023-12-09T18:44:35.327Z,101512.38
2023-12-09T18:47:02.806Z,101502.09
2023-12-09T18:49:30.536Z,101502.28
2023-12-09T18:51:58.304Z,101502.94
2023-12-09T18:54:25.886Z,101506.19
2023-12-09T18:56:53.474Z,101496.22
2023-12-09T18:59:20.964Z,101502.81
2023-12-09T19:01:51.497Z,101500.06
2023-12-09T19:04:22.415Z,101499.72
2023-12-09T19:06:56.859Z,101485.84
2023-12-09T19:09:27.094Z,101487.53
2023-12-09T19:11:54.505Z,101492.44
2023-12-09T19:14:21.706Z,101491.16
2023-12-09T19:16:49.961Z,101492.72
2023-12-09T19:19:18.833Z,101496.03
2023-12-09T19:21:47.801Z,101493.28
2023-12-09T19:24:15.016Z,101497.63
2023-12-09T19:26:42.566Z,101493.47
2023-12-09T19:29:09.915Z,101493.28
2023-12-09T19:31:37.337Z,101492.31
2023-12-09T19:34:04.558Z,101488.47
2023-12-09T19:36:31.726Z,101491.38
2023-12-09T19:38:58.795Z,101490.63
2023-12-09T19:41:26.042Z,101490.94
2023-12-09T19:43:53.458Z,101482.03
2023-12-09T19:46:20.758Z,101487.31
2023-12-09T19:48:48.204Z,101488.16
2023-12-09T19:51:15.426Z,101484.38
2023-12-09T19:53:42.614Z,101487.31
2023-12-09T19:56:10.265Z,101483.94
2023-12-09T19:58:37.783Z,101477.47
2023-12-09T20:01:05.336Z,101476.91
2023-12-09T20:03:32.909Z,101479.56
2023-12-09T20:06:01.557Z,101474.16
2023-12-09T20:08:28.665Z,101472.06
2023-12-09T20:10:56.080Z,101473.75
2023-12-09T20:13:23.242Z,101474.72
2023-12-09T20:15:50.714Z,101475.22
2023-12-09T20:18:18.252Z,101476.63
2023-12-09T20:20:45.812Z,101475.00
2023-12-09T20:23:13.202Z,101478.84
2023-12-09T20:25:40.203Z,101477.78
2023-12-09T20:28:07.956Z,101475.56
2023-12-09T20:30:35.666Z,101470.06
2023-12-09T20:33:03.144Z,101467.81
2023-12-09T20:35:30.631Z,101468.34
2023-12-09T20:37:57.851Z,101465.47
2023-12-09T20:40:25.236Z,101470.25
2023-12-09T20:42:53.950Z,101464.22
2023-12-09T20:45:22.025Z,101467.69
2023-12-09T20:47:49.293Z,101463.16
2023-12-09T20:50:16.593Z,101452.97
2023-12-09T20:52:43.719Z,101458.16
2023-12-09T20:55:10.803Z,101458.69
2023-12-09T20:57:39.021Z,101458.06
2023-12-09T21:00:08.245Z,101467.38
2023-12-09T21:02:36.060Z,101469.50
2023-12-09T21:05:04.866Z,101460.38
2023-12-09T21:07:33.299Z,101471.81
2023-12-09T21:10:01.418Z,101475.88
2023-12-09T21:12:29.132Z,101454.88
2023-12-09T21:14:56.973Z,101449.56
2023-12-09T21:17:24.579Z,101450.63
2023-12-09T21:19:51.835Z,101442.78
2023-12-09T21:22:19.195Z,101449.56
2023-12-09T21:24:46.358Z,101447.56
2023-12-09T21:27:14.258Z,101450.00
2023-12-09T21:29:41.490Z,101439.81
2023-12-09T21:32:10.175Z,101440.66
2023-12-09T21:34:37.781Z,101430.28
2023-12-09T21:37:06.241Z,101430.81
2023-12-09T21:39:33.694Z,101427.41
2023-12-09T21:42:00.945Z,101424.34
2023-12-09T21:44:28.481Z,101431.56
2023-12-09T21:46:55.705Z,101425.59
2023-12-09T21:49:23.240Z,101426.31
2023-12-09T21:51:50.758Z,101416.06
2023-12-09T21:54:17.959Z,101419.66
2023-12-09T21:56:45.485Z,101422.41
2023-12-09T21:59:12.690Z,101416.91
2023-12-09T22:01:40.613Z,101418.59
2023-12-09T22:04:07.901Z,101418.59
2023-12-09T22:06:35.185Z,101414.38
2023-12-09T22:09:02.534Z,101404.81
2023-12-09T22:11:31.138Z,101409.50
2023-12-09T22:13:58.324Z,101408.00
2023-12-09T22:16:25.419Z,101398.25
2023-12-09T22:18:52.815Z,101399.00
2023-12-09T22:21:21.405Z,101396.97
2023-12-09T22:23:48.808Z,101400.91
2023-12-09T22:26:16.025Z,101396.34
2023-12-09T22:28:43.738Z,101389.13
2023-12-09T22:31:11.156Z,101393.47
2023-12-09T22:33:38.592Z,101396.66
2023-12-09T22:36:06.105Z,101390.63
2023-12-09T22:38:33.271Z,101386.56
2023-12-09T22:41:00.523Z,101387.88
2023-12-09T22:43:27.624Z,101393.16
2023-12-09T22:45:54.712Z,101386.81
2023-12-09T22:48:22.097Z,101394.97
2023-12-09T22:50:50.043Z,101392.50
2023-12-09T22:53:18.074Z,101400.59
2023-12-09T22:55:45.138Z,101400.16
2023-12-09T22:58:12.242Z,101397.41
2023-12-09T23:00:39.381Z,101402.59
2023-12-09T23:03:06.752Z,101405.66
2023-12-09T23:05:34.091Z,101403.97
2023-12-09T23:08:01.240Z,101402.91
2023-12-09T23:10:28.456Z,101406.31
2023-12-09T23:12:55.786Z,101404.06
2023-12-09T23:15:23.050Z,101417.94
2023-12-09T23:17:50.369Z,101416.06
2023-12-09T23:20:19.203Z,101415.66
2023-12-09T23:22:46.485Z,101413.94
2023-12-09T23:25:13.860Z,101418.81
2023-12-09T23:27:41.221Z,101423.69
2023-12-09T23:30:08.740Z,101428.91
2023-12-09T23:32:36.236Z,101429.84
2023-12-09T23:35:03.387Z,101429.84
2023-12-09T23:37:30.773Z,101431.22
2023-12-09T23:39:57.843Z,101428.78
2023-12-09T23:42:24.988Z,101426.66
2023-12-09T23:44:52.180Z,101434.59
2023-12-09T23:47:19.278Z,101431.22
2023-12-09T23:49:46.444Z,101423.06
2023-12-09T23:52:13.592Z,101431.22
2023-12-09T23:54:41.118Z,101428.16
2023-12-09T23:57:08.859Z,101434.41
2023-12-09T23:59:35.972Z,101441.81
